Time;durP1;ratioP1;P1;durP2;ratioP2;P2;SDS_P1;SDS_P2;PMS_P1;PMS_P2;Temp;Humidity;BMP_temperature;BMP_pressure;BME280_temperature;BME280_humidity;BME280_pressure;Samples;Min_cycle;Max_cycle;Signal;HPM_P1;HPM_P2
2020/12/04 00:00:29;;;;;;;41.63;20.17;;;;;;;1.54;77.48;100111.23;1792356;79;20973;-37
2020/12/04 00:02:58;;;;;;;43.08;20.52;;;;;;;1.51;77.54;100111.78;1765625;79;21139;-36
2020/12/04 00:05:26;;;;;;;41.20;20.00;;;;;;;1.54;77.57;100109.91;1765152;81;21554;-37
2020/12/04 00:07:58;;;;;;;37.75;21.05;;;;;;;1.61;77.28;100114.36;1772983;79;21359;-37
2020/12/04 00:10:26;;;;;;;47.20;22.62;;;;;;;1.61;77.29;100107.14;1774752;79;21175;-36
2020/12/04 00:12:54;;;;;;;36.13;19.00;;;;;;;1.57;77.34;100107.99;1766045;79;21129;-36
2020/12/04 00:15:23;;;;;;;41.18;20.00;;;;;;;1.61;77.35;100113.03;1765098;80;21111;-37
2020/12/04 00:17:51;;;;;;;43.33;22.52;;;;;;;1.69;77.15;100105.75;1767015;79;21111;-36
2020/12/04 00:20:20;;;;;;;41.53;21.40;;;;;;;1.70;76.99;100107.33;1766170;79;21396;-37
2020/12/04 00:22:48;;;;;;;42.65;20.37;;;;;;;1.65;76.99;100103.36;1765533;79;21128;-37
2020/12/04 00:25:16;;;;;;;39.83;20.05;;;;;;;1.63;77.04;100103.66;1765148;81;21103;-36
2020/12/04 00:27:45;;;;;;;36.50;19.45;;;;;;;1.65;76.98;100100.69;1788913;79;20925;-36
2020/12/04 00:30:13;;;;;;;42.50;21.30;;;;;;;1.65;77.02;100102.83;1761909;79;21166;-36
2020/12/04 00:32:42;;;;;;;36.20;19.85;;;;;;;1.61;77.09;100105.01;1773838;79;21256;-36
2020/12/04 00:35:10;;;;;;;40.52;20.45;;;;;;;1.58;77.16;100102.38;1785241;79;21847;-36
2020/12/04 00:37:39;;;;;;;40.00;20.68;;;;;;;1.61;77.18;100096.45;1795442;79;21680;-37
2020/12/04 00:40:07;;;;;;;42.75;21.70;;;;;;;1.63;77.16;100088.16;1787642;79;21170;-36
2020/12/04 00:42:36;;;;;;;39.27;20.12;;;;;;;1.57;77.28;100085.28;1766295;79;21159;-36
2020/12/04 00:45:04;;;;;;;40.70;20.80;;;;;;;1.54;77.40;100086.66;1765149;80;21255;-36
2020/12/04 00:47:33;;;;;;;40.70;21.35;;;;;;;1.53;77.51;100079.70;1766551;79;21040;-37
2020/12/04 00:50:01;;;;;;;50.78;23.75;;;;;;;1.51;77.53;100085.86;1767445;79;21135;-36
2020/12/04 00:52:30;;;;;;;38.20;20.57;;;;;;;1.49;77.75;100085.90;1782169;79;21017;-37
2020/12/04 00:54:59;;;;;;;38.10;20.17;;;;;;;1.51;77.78;100093.08;1766075;79;21534;-36
2020/12/04 00:57:27;;;;;;;39.83;21.25;;;;;;;1.60;77.57;100094.05;1765045;81;21406;-36
2020/12/04 00:59:56;;;;;;;47.75;23.60;;;;;;;1.59;77.55;100092.48;1765463;79;21044;-36
2020/12/04 01:02:24;;;;;;;42.93;22.52;;;;;;;1.56;77.61;100091.69;1766562;79;21131;-36
2020/12/04 01:04:52;;;;;;;43.90;23.35;;;;;;;1.55;77.61;100074.09;1765777;79;21052;-36
2020/12/04 01:07:22;;;;;;;46.10;23.00;;;;;;;1.61;77.51;100076.95;1777988;79;21036;-37
2020/12/04 01:09:52;;;;;;;51.30;24.30;;;;;;;1.59;77.51;100075.91;1772617;79;21191;-37
2020/12/04 01:12:20;;;;;;;42.95;22.32;;;;;;;1.55;77.59;100068.75;1766466;79;21167;-36
2020/12/04 01:14:48;;;;;;;44.30;22.98;;;;;;;1.51;77.66;100068.49;1764236;79;20992;-36
2020/12/04 01:17:17;;;;;;;53.55;24.95;;;;;;;1.55;77.61;100073.52;1762534;79;21138;-36
2020/12/04 01:19:45;;;;;;;49.40;23.85;;;;;;;1.49;77.85;100068.00;1766064;79;21127;-36
2020/12/04 01:22:14;;;;;;;46.37;23.02;;;;;;;1.48;77.90;100072.27;1766267;79;22114;-36
2020/12/04 01:24:42;;;;;;;44.58;22.62;;;;;;;1.51;77.82;100075.70;1767548;79;21673;-36
2020/12/04 01:27:11;;;;;;;48.28;23.83;;;;;;;1.54;77.80;100072.49;1784220;79;21141;-36
2020/12/04 01:29:39;;;;;;;47.95;23.20;;;;;;;1.54;77.83;100073.30;1784101;79;21103;-36
2020/12/04 01:32:07;;;;;;;44.77;24.20;;;;;;;1.55;77.83;100078.09;1767318;79;21448;-36
2020/12/04 01:34:36;;;;;;;45.60;23.83;;;;;;;1.60;77.71;100069.47;1772820;79;21261;-36
2020/12/04 01:37:04;;;;;;;49.73;23.22;;;;;;;1.60;77.69;100064.66;1765268;79;21205;-36
2020/12/04 01:39:32;;;;;;;43.38;22.50;;;;;;;1.57;77.74;100063.90;1768905;79;21530;-37
2020/12/04 01:42:01;;;;;;;44.05;23.73;;;;;;;1.60;77.74;100061.98;1764978;81;21467;-36
2020/12/04 01:44:30;;;;;;;37.88;20.27;;;;;;;1.62;77.66;100053.16;1726635;82;21166;-36
2020/12/04 01:46:58;;;;;;;50.45;24.72;;;;;;;1.57;77.73;100050.54;1726136;82;22140;-36
2020/12/04 01:49:26;;;;;;;48.23;23.12;;;;;;;1.48;78.00;100060.25;1712608;82;21170;-36
2020/12/04 01:51:55;;;;;;;50.38;24.45;;;;;;;1.47;78.06;100051.44;1795218;79;21036;-36
2020/12/04 01:54:23;;;;;;;49.03;24.23;;;;;;;1.54;78.00;100049.78;1783502;79;21150;-37
2020/12/04 01:56:52;;;;;;;49.08;22.90;;;;;;;1.52;78.07;100048.72;1771782;79;21633;-36
2020/12/04 01:59:20;;;;;;;48.68;23.50;;;;;;;1.50;78.12;100043.41;1765077;79;22177;-37
2020/12/04 02:01:49;;;;;;;42.25;23.07;;;;;;;1.50;78.16;100051.42;1771454;79;21118;-36
2020/12/04 02:04:17;;;;;;;51.60;25.37;;;;;;;1.54;78.05;100049.24;1764976;79;21672;-36
2020/12/04 02:06:56;;;;;;;47.80;23.47;;;;;;;1.54;78.11;100048.44;1765303;79;21871;-38
2020/12/04 02:09:28;;;;;;;46.75;23.38;;;;;;;1.52;78.18;100053.27;1765936;79;21163;-37
2020/12/04 02:11:59;;;;;;;48.23;23.38;;;;;;;1.54;78.17;100053.79;1765332;79;22250;-37
2020/12/04 02:14:28;;;;;;;47.67;23.70;;;;;;;1.59;78.04;100055.08;1766126;79;21170;-37
2020/12/04 02:17:04;;;;;;;43.75;22.40;;;;;;;1.54;78.08;100053.79;1766237;79;21546;-38
2020/12/04 02:19:38;;;;;;;46.02;23.65;;;;;;;1.50;78.21;100050.86;1776695;79;21123;-37
2020/12/04 02:22:07;;;;;;;46.65;24.43;;;;;;;1.57;78.19;100047.87;1795701;79;21552;-38
2020/12/04 02:24:35;;;;;;;53.15;25.62;;;;;;;1.59;78.21;100053.73;1794827;79;21274;-38
2020/12/04 02:27:04;;;;;;;49.50;24.50;;;;;;;1.52;78.30;100047.37;1765851;79;21045;-38
2020/12/04 02:29:32;;;;;;;48.87;24.57;;;;;;;1.50;78.43;100046.08;1765049;81;21127;-37
2020/12/04 02:32:02;;;;;;;54.05;24.60;;;;;;;1.53;78.41;100047.64;1766577;79;21513;-37
2020/12/04 02:34:30;;;;;;;46.15;23.67;;;;;;;1.53;78.46;100046.84;1769171;79;21143;-38
2020/12/04 02:36:59;;;;;;;44.38;23.70;;;;;;;1.52;78.51;100045.24;1768085;79;22215;-37
2020/12/04 02:39:27;;;;;;;43.87;22.65;;;;;;;1.54;78.54;100045.77;1786500;79;21087;-37
2020/12/04 02:41:56;;;;;;;46.42;23.20;;;;;;;1.60;78.27;100039.27;1796427;79;21035;-37
2020/12/04 02:44:24;;;;;;;49.70;24.60;;;;;;;1.56;78.40;100040.92;1795487;79;21158;-37
2020/12/04 02:46:54;;;;;;;42.25;23.40;;;;;;;1.53;78.57;100040.16;1785140;79;21188;-37
2020/12/04 02:49:22;;;;;;;44.35;24.00;;;;;;;1.52;78.55;100030.02;1767719;79;21201;-38
2020/12/04 02:51:50;;;;;;;43.35;23.52;;;;;;;1.59;78.49;100021.67;1764971;80;21190;-38
2020/12/04 02:54:20;;;;;;;43.25;22.62;;;;;;;1.53;78.64;100028.14;1765273;79;21020;-38
2020/12/04 02:56:49;;;;;;;40.48;22.45;;;;;;;1.52;78.68;100027.88;1777577;79;21974;-38
2020/12/04 02:59:17;;;;;;;41.48;21.02;;;;;;;1.21;78.63;99983.33;1770779;79;21104;-38
2020/12/04 03:01:45;;;;;;;42.83;23.38;;;;;;;1.57;78.61;100037.17;1769290;79;21207;-38
2020/12/04 03:04:14;;;;;;;40.55;21.50;;;;;;;1.56;78.61;100043.59;1767245;79;21194;-38
2020/12/04 03:06:42;;;;;;;41.18;21.25;;;;;;;1.56;78.67;100040.92;1765646;79;21147;-37
2020/12/04 03:09:11;;;;;;;45.33;22.27;;;;;;;1.62;78.52;100041.13;1779039;79;21621;-37
2020/12/04 03:11:39;;;;;;;47.43;22.45;;;;;;;1.63;78.45;100040.06;1760158;79;21429;-37
2020/12/04 03:14:08;;;;;;;36.58;20.40;;;;;;;1.60;78.49;100045.41;1765949;79;21415;-37
2020/12/04 03:16:36;;;;;;;40.60;21.45;;;;;;;1.64;78.44;100047.00;1770859;79;21605;-37
2020/12/04 03:19:05;;;;;;;39.38;20.85;;;;;;;1.68;78.41;100046.69;1772773;79;21425;-37
2020/12/04 03:21:33;;;;;;;41.98;21.30;;;;;;;1.73;78.40;100049.31;1786204;79;21138;-37
2020/12/04 03:24:02;;;;;;;40.05;20.75;;;;;;;1.73;78.32;100046.64;1777128;79;21139;-37
2020/12/04 03:26:30;;;;;;;36.80;20.70;;;;;;;1.76;78.18;100043.38;1766691;79;21379;-38
2020/12/04 03:29:00;;;;;;;41.92;22.40;;;;;;;1.79;78.12;100050.85;1771264;79;21166;-37
2020/12/04 03:31:28;;;;;;;40.40;21.20;;;;;;;1.78;78.18;100047.92;1792105;79;20996;-37
2020/12/04 03:33:57;;;;;;;39.85;21.77;;;;;;;1.75;78.19;100045.80;1765184;79;21104;-37
2020/12/04 03:36:26;;;;;;;46.88;21.10;;;;;;;1.74;78.33;100044.23;1768238;79;21844;-37
2020/12/04 03:38:54;;;;;;;41.73;21.80;;;;;;;1.82;78.06;100039.58;1766104;79;22403;-37
2020/12/04 03:41:22;;;;;;;40.48;21.12;;;;;;;1.80;78.10;100041.73;1766066;79;21000;-37
2020/12/04 03:43:52;;;;;;;35.73;19.98;;;;;;;1.77;78.17;100043.64;1765117;81;21142;-37
2020/12/04 03:46:20;;;;;;;36.93;17.90;;;;;;;1.79;78.18;100044.70;1767110;79;21606;-38
2020/12/04 03:48:48;;;;;;;45.45;22.62;;;;;;;1.84;78.04;100045.42;1787329;79;21173;-38
2020/12/04 03:51:16;;;;;;;47.03;21.48;;;;;;;1.83;78.12;100045.73;1782993;79;21370;-38
2020/12/04 03:53:46;;;;;;;48.42;21.68;;;;;;;1.83;78.04;100039.05;1782360;79;21169;-38
2020/12/04 03:56:14;;;;;;;;;;;;;;;1.79;78.12;100036.69;1785180;79;21102;-38
2020/12/04 03:58:42;;;;;;;46.25;23.18;;;;;;;1.79;78.12;100029.47;1799289;79;20148;-37
2020/12/04 04:01:12;;;;;;;41.08;21.35;;;;;;;1.66;78.59;100032.80;1789577;79;21134;-37
2020/12/04 04:05:38;;;;;;;48.50;22.73;;;;;;;1.81;78.47;100037.98;1808059;78;24019;-37
2020/12/04 04:08:06;;;;;;;52.65;23.18;;;;;;;1.76;78.51;100040.71;1809082;78;21378;-36
2020/12/04 04:10:35;;;;;;;50.03;24.47;;;;;;;1.76;78.47;100038.03;1792844;78;21356;-36
2020/12/04 04:13:03;;;;;;;39.00;21.57;;;;;;;1.75;78.54;100035.10;1785071;79;21015;-37
2020/12/04 04:15:32;;;;;;;46.55;22.82;;;;;;;1.75;78.46;100038.58;1784861;78;21035;-37
2020/12/04 04:18:00;;;;;;;51.90;25.02;;;;;;;1.79;78.46;100036.69;1784934;79;20995;-37
2020/12/04 04:20:28;;;;;;;46.45;22.42;;;;;;;1.76;78.51;100038.03;1795337;79;20992;-36
2020/12/04 04:22:57;;;;;;;41.28;21.52;;;;;;;1.77;78.60;100042.31;1787902;78;21408;-37
2020/12/04 04:25:29;;;;;;;52.17;24.43;;;;;;;1.82;78.51;100042.25;1784964;79;21621;-36
2020/12/04 04:27:58;;;;;;;43.85;22.93;;;;;;;1.83;78.43;100042.52;1796484;79;21011;-36
2020/12/04 04:30:26;;;;;;;43.87;23.30;;;;;;;1.77;78.57;100038.30;1786125;79;21067;-36
2020/12/04 04:32:54;;;;;;;43.45;22.45;;;;;;;1.76;78.57;100030.02;1801572;79;21107;-37
2020/12/04 04:35:23;;;;;;;47.58;24.27;;;;;;;1.81;78.55;100033.97;1784206;80;21445;-36
2020/12/04 04:37:53;;;;;;;45.60;23.73;;;;;;;1.83;78.51;100036.37;1792123;78;21142;-37
2020/12/04 04:40:23;;;;;;;45.35;23.38;;;;;;;1.80;78.59;100029.70;1784152;80;21149;-36
2020/12/04 04:43:14;;;;;;;45.13;23.77;;;;;;;1.81;78.58;100024.62;1758487;80;21122;-37
2020/12/04 04:45:43;;;;;;;53.45;25.95;;;;;;;1.83;78.50;100023.80;1799313;79;21749;-36
2020/12/04 04:48:19;;;;;;;51.13;23.90;;;;;;;1.78;78.64;100019.85;1784931;79;21199;-37
2020/12/04 04:50:47;;;;;;;45.67;23.10;;;;;;;1.75;78.74;100023.87;1791884;78;21180;-36
2020/12/04 04:53:16;;;;;;;55.05;24.82;;;;;;;1.82;78.63;100034.23;1751387;80;21032;-36
2020/12/04 04:55:44;;;;;;;56.85;24.90;;;;;;;1.85;78.49;100028.30;1750918;80;21169;-37
2020/12/04 04:58:14;;;;;;;47.60;24.27;;;;;;;1.83;78.50;100028.34;1755322;80;21155;-36
2020/12/04 05:00:42;;;;;;;53.63;24.18;;;;;;;1.83;78.59;100014.45;1743073;80;21374;-36
2020/12/04 05:03:11;;;;;;;50.28;24.55;;;;;;;1.87;78.52;100018.13;1746213;81;21139;-37
2020/12/04 05:05:51;;;;;;;52.85;25.57;;;;;;;1.91;78.38;100024.50;1718662;82;21155;-37
2020/12/04 05:08:23;;;;;;;49.42;25.00;;;;;;;1.89;78.49;100023.98;1784636;79;21613;-36
2020/12/04 05:10:51;;;;;;;50.73;24.82;;;;;;;1.89;78.46;100023.20;1803005;79;21119;-37
2020/12/04 05:13:21;;;;;;;48.15;23.10;;;;;;;1.95;78.30;100025.52;1799466;79;23510;-36
2020/12/04 05:15:49;;;;;;;62.70;27.37;;;;;;;1.98;78.23;100025.50;1804736;79;21170;-37
2020/12/04 05:18:19;;;;;;;50.80;24.23;;;;;;;1.97;78.18;100021.23;1775148;79;21138;-36
2020/12/04 05:20:52;;;;;;;50.73;22.73;;;;;;;1.94;78.17;100018.57;1784808;79;21195;-37
2020/12/04 05:23:20;;;;;;;58.38;26.40;;;;;;;1.98;78.10;100018.81;1795563;79;21120;-36
2020/12/04 05:25:51;;;;;;;48.05;24.47;;;;;;;1.98;78.04;100019.61;1806987;79;21453;-37
2020/12/04 05:28:21;;;;;;;49.38;23.35;;;;;;;1.93;78.08;100027.70;1781719;79;21019;-37
2020/12/04 05:31:08;;;;;;;48.15;23.92;;;;;;;1.93;78.19;100028.23;1738128;82;21172;-37
2020/12/04 05:33:39;;;;;;;46.95;24.00;;;;;;;1.99;78.05;100031.88;1746396;80;21672;-37
2020/12/04 05:36:07;;;;;;;;;;;;;;;2.02;77.95;100025.97;1712098;80;21210;-37
2020/12/04 05:38:36;;;;;;;56.15;25.50;;;;;;;2.01;78.02;100036.95;1735531;80;22115;-37
2020/12/04 05:41:08;;;;;;;44.40;22.93;;;;;;;1.89;78.32;100038.68;1738123;82;21123;-36
2020/12/04 05:43:39;;;;;;;52.85;25.40;;;;;;;1.93;78.22;100035.72;1752683;80;21028;-36
2020/12/04 05:46:24;;;;;;;51.28;25.50;;;;;;;2.00;77.97;100034.02;1713893;81;21732;-37
2020/12/04 05:49:08;;;;;;;52.23;25.10;;;;;;;1.97;78.10;100028.71;1711663;82;21160;-37
2020/12/04 05:51:39;;;;;;;47.05;23.57;;;;;;;1.94;78.15;100046.64;1716466;82;21192;-36
2020/12/04 05:54:10;;;;;;;46.08;22.65;;;;;;;2.01;78.06;100047.64;1736793;82;21187;-37
2020/12/04 05:56:39;;;;;;;51.18;25.27;;;;;;;2.06;77.98;100052.94;1738131;82;21028;-37
2020/12/04 05:59:10;;;;;;;56.20;25.03;;;;;;;2.05;77.99;100046.78;1737208;81;21632;-36
2020/12/04 06:01:45;;;;;;;52.15;24.85;;;;;;;2.05;77.89;100050.80;1723109;80;21159;-37
2020/12/04 06:04:18;;;;;;;48.38;24.50;;;;;;;2.06;77.82;100049.72;1742026;80;21401;-36
2020/12/04 06:06:46;;;;;;;53.23;26.60;;;;;;;2.09;77.72;100054.48;1764268;81;21610;-36
2020/12/04 06:09:15;;;;;;;56.07;24.10;;;;;;;2.07;77.78;100054.53;1731733;81;21047;-37
2020/12/04 06:11:48;;;;;;;46.60;23.10;;;;;;;2.04;77.88;100066.58;1761972;81;21135;-36
2020/12/04 06:14:22;;;;;;;51.10;25.08;;;;;;;2.05;77.91;100070.86;1767677;80;21585;-36
2020/12/04 06:17:08;;;;;;;48.87;24.43;;;;;;;2.13;77.72;100070.21;1760881;80;21208;-37
2020/12/04 06:19:39;;;;;;;43.65;21.93;;;;;;;2.14;77.71;100074.48;1689521;84;21178;-37
2020/12/04 06:22:18;;;;;;;42.05;20.70;;;;;;;2.13;77.70;100082.25;1739137;82;21158;-37
2020/12/04 06:24:59;;;;;;;40.98;21.62;;;;;;;2.17;77.64;100094.53;1690564;83;21218;-37
2020/12/04 06:27:44;;;;;;;35.60;18.70;;;;;;;2.26;77.42;100088.00;1739046;82;21172;-37
2020/12/04 06:30:16;;;;;;;39.70;19.90;;;;;;;2.32;77.23;100094.35;1744599;81;21348;-37
2020/12/04 06:32:50;;;;;;;;;;;;;;;2.33;77.15;100089.77;1743928;81;21044;-37
2020/12/04 06:35:42;;;;;;;36.23;18.67;;;;;;;2.32;77.05;100098.36;1748611;81;20158;-37
2020/12/04 06:38:40;;;;;;;40.75;20.68;;;;;;;2.27;77.14;100093.61;1742624;81;21186;-37
2020/12/04 06:41:38;;;;;;;41.15;20.77;;;;;;;2.36;77.04;100094.56;1760606;81;21146;-37
2020/12/04 06:44:18;;;;;;;38.92;20.62;;;;;;;2.40;76.97;100090.23;1750648;81;21204;-38
2020/12/04 06:46:48;;;;;;;39.33;19.73;;;;;;;2.42;76.89;100090.75;1732735;81;21176;-37
2020/12/04 06:52:19;;;;;;;37.35;18.98;;;;;;;2.49;76.59;100089.30;1741246;81;20262;-37
2020/12/04 06:54:49;;;;;;;38.08;19.05;;;;;;;2.42;76.75;100088.08;1759574;81;21183;-37
2020/12/04 06:57:20;;;;;;;37.78;19.32;;;;;;;2.42;76.77;100088.84;1725679;83;22344;-37
2020/12/04 06:59:48;;;;;;;32.48;18.00;;;;;;;2.42;76.70;100093.42;1769659;81;21158;-37
2020/12/04 07:02:18;;;;;;;31.40;17.27;;;;;;;2.40;76.75;100099.05;1725422;83;21610;-37
2020/12/04 07:04:52;;;;;;;33.25;17.65;;;;;;;2.47;76.65;100096.80;1765469;80;21632;-37
2020/12/04 07:07:25;;;;;;;34.10;18.40;;;;;;;2.48;76.62;100089.58;1792615;79;21605;-37
2020/12/04 07:09:59;;;;;;;33.83;17.87;;;;;;;2.49;76.63;100100.55;1733118;81;22125;-37
2020/12/04 07:12:29;;;;;;;29.65;16.20;;;;;;;2.50;76.67;100099.47;1767172;80;21162;-37
2020/12/04 07:14:59;;;;;;;30.20;16.62;;;;;;;2.53;76.63;100106.91;1772765;79;21021;-37
2020/12/04 07:17:29;;;;;;;35.40;18.57;;;;;;;2.63;76.32;100097.41;1800228;79;21174;-37
2020/12/04 07:19:59;;;;;;;;;;;;;;;2.62;76.38;100099.83;1792948;79;21166;-37
2020/12/04 07:22:27;;;;;;;32.78;16.52;;;;;;;2.60;76.40;100105.48;1796341;79;21187;-37
2020/12/04 07:24:57;;;;;;;33.05;16.73;;;;;;;2.49;76.67;100100.55;1790375;79;21127;-37
2020/12/04 07:27:27;;;;;;;37.27;18.53;;;;;;;2.57;76.63;100104.70;1755616;80;21622;-37
2020/12/04 07:29:55;;;;;;;33.55;17.57;;;;;;;2.68;76.40;100107.25;1734504;82;21471;-37
2020/12/04 07:32:25;;;;;;;36.88;18.00;;;;;;;2.68;76.37;100108.59;1734072;82;21146;-37
2020/12/04 07:34:54;;;;;;;35.17;17.92;;;;;;;2.66;76.43;100102.20;1803831;79;22101;-39
2020/12/04 07:37:28;;;;;;;29.50;16.67;;;;;;;2.71;76.33;100112.05;1805391;79;21168;-37
2020/12/04 07:39:56;;;;;;;28.25;16.15;;;;;;;2.79;76.13;100113.52;1791034;79;21573;-42
2020/12/04 07:42:24;;;;;;;31.23;16.87;;;;;;;2.84;76.00;100120.69;1797814;79;21185;-38
2020/12/04 07:44:55;;;;;;;35.30;19.07;;;;;;;2.83;75.97;100115.88;1777394;79;21119;-37
2020/12/04 07:47:23;;;;;;;31.07;16.40;;;;;;;2.82;76.06;100116.95;1778735;79;21195;-38
2020/12/04 07:49:54;;;;;;;30.90;16.57;;;;;;;2.82;76.01;100119.63;1778366;80;21162;-38
2020/12/04 07:52:31;;;;;;;28.70;15.78;;;;;;;2.85;75.92;100121.74;1791199;79;20997;-37
2020/12/04 07:55:03;;;;;;;29.12;16.07;;;;;;;2.96;75.78;100127.19;1777057;80;21576;-37
2020/12/04 07:58:14;;;;;;;26.97;15.60;;;;;;;2.98;75.74;100126.37;1804652;79;21122;-37
2020/12/04 08:00:44;;;;;;;31.27;16.97;;;;;;;2.99;75.76;100133.86;1778232;79;21221;-37
2020/12/04 08:03:13;;;;;;;29.05;16.02;;;;;;;2.95;75.84;100126.93;1795026;79;21145;-37
2020/12/04 08:05:42;;;;;;;27.05;14.20;;;;;;;3.05;75.71;100128.66;1801375;79;21174;-38
2020/12/04 08:08:10;;;;;;;24.75;14.85;;;;;;;3.12;75.43;100132.33;1793502;78;21166;-37
2020/12/04 08:10:39;;;;;;;28.23;16.55;;;;;;;3.11;75.31;100129.38;1796580;79;21190;-37
2020/12/04 08:13:07;;;;;;;28.15;16.60;;;;;;;3.09;75.32;100131.58;1778093;79;21370;-38
2020/12/04 08:15:41;;;;;;;28.38;15.32;;;;;;;3.02;75.42;100118.54;1741140;82;21159;-38
2020/12/04 08:18:11;;;;;;;28.07;15.95;;;;;;;3.05;75.50;100121.42;1718555;80;21594;-37
2020/12/04 08:20:41;;;;;;;26.87;15.55;;;;;;;3.13;75.27;100125.88;1813418;79;21148;-37
2020/12/04 08:23:10;;;;;;;29.35;15.48;;;;;;;3.11;75.20;100116.79;1806782;78;21573;-38
2020/12/04 08:25:38;;;;;;;28.83;16.82;;;;;;;3.08;75.29;100122.73;1776046;80;21465;-37
2020/12/04 08:28:07;;;;;;;30.55;16.02;;;;;;;3.05;75.45;100117.41;1772693;80;21110;-40
2020/12/04 08:30:38;;;;;;;27.22;15.93;;;;;;;3.08;75.47;100112.56;1797589;79;21024;-40
2020/12/04 08:33:06;;;;;;;29.30;15.85;;;;;;;3.17;75.34;100110.27;1806451;79;21345;-39
2020/12/04 08:35:39;;;;;;;27.07;15.75;;;;;;;3.21;75.34;100124.67;1810782;79;21126;-38
2020/12/04 08:38:13;;;;;;;36.50;19.32;;;;;;;3.20;75.27;100118.26;1810567;79;21190;-38
2020/12/04 08:40:46;;;;;;;34.88;17.55;;;;;;;3.18;75.29;100120.45;1803813;78;21170;-39
2020/12/04 08:43:24;;;;;;;31.90;16.90;;;;;;;3.18;75.37;100121.79;1762279;79;21605;-36
2020/12/04 08:45:57;;;;;;;29.90;16.80;;;;;;;3.21;75.31;100121.20;1791692;78;21142;-38
2020/12/04 08:48:28;;;;;;;33.10;17.70;;;;;;;3.24;75.42;100113.93;1800295;79;21068;-38
2020/12/04 08:51:04;;;;;;;35.63;19.60;;;;;;;3.28;75.38;100114.39;1804776;79;21366;-37
2020/12/04 08:53:34;;;;;;;37.48;18.45;;;;;;;3.28;75.30;100110.38;1803153;79;21384;-38
2020/12/04 08:56:04;;;;;;;39.75;20.10;;;;;;;3.30;75.32;100113.54;1813945;79;21534;-38
2020/12/04 08:58:33;;;;;;;35.45;19.30;;;;;;;3.32;75.14;100109.23;1814461;78;21168;-38
2020/12/04 09:01:04;;;;;;;36.33;19.85;;;;;;;3.27;75.25;100115.48;1788117;79;21074;-38
2020/12/04 09:03:33;;;;;;;38.30;20.02;;;;;;;3.23;75.35;100101.08;1784080;80;22088;-38
2020/12/04 09:06:01;;;;;;;34.33;19.15;;;;;;;3.21;75.54;100092.52;1798099;79;21416;-38
2020/12/04 09:08:31;;;;;;;38.23;20.25;;;;;;;3.24;75.49;100093.84;1781365;78;21040;-37
2020/12/04 09:11:00;;;;;;;32.23;18.48;;;;;;;3.27;75.63;100089.22;1755422;81;21204;-38
2020/12/04 09:13:28;;;;;;;36.08;19.55;;;;;;;3.28;75.63;100097.52;1737185;82;21212;-38
2020/12/04 09:15:57;;;;;;;34.00;18.50;;;;;;;3.27;75.64;100090.56;1751553;81;21148;-38
2020/12/04 09:18:28;;;;;;;33.40;18.57;;;;;;;3.26;75.75;100091.64;1732310;82;21197;-38
2020/12/04 09:20:57;;;;;;;34.90;19.57;;;;;;;3.36;75.62;100086.91;1731149;82;21194;-38
2020/12/04 09:23:26;;;;;;;38.08;19.57;;;;;;;3.36;75.38;100090.94;1731730;81;21186;-38
2020/12/04 09:25:55;;;;;;;35.85;19.12;;;;;;;3.31;75.43;100090.22;1807131;79;21170;-38
2020/12/04 09:28:24;;;;;;;34.90;19.32;;;;;;;3.27;75.61;100082.52;1806027;79;21451;-38
2020/12/04 09:30:53;;;;;;;35.10;20.52;;;;;;;3.27;75.82;100079.84;1807102;79;21162;-38
2020/12/04 09:33:22;;;;;;;39.50;21.62;;;;;;;3.25;75.83;100086.83;1805092;79;21043;-38
2020/12/04 09:35:50;;;;;;;37.83;20.17;;;;;;;3.25;75.92;100083.34;1778489;80;21159;-38
2020/12/04 09:38:19;;;;;;;34.53;19.17;;;;;;;3.25;76.06;100086.02;1786590;79;21142;-38
2020/12/04 09:40:48;;;;;;;32.95;19.20;;;;;;;3.33;75.97;100094.21;1737198;82;22270;-38
2020/12/04 09:43:19;;;;;;;31.90;18.48;;;;;;;3.39;75.69;100087.66;1737062;82;21131;-38
2020/12/04 09:45:49;;;;;;;41.35;20.23;;;;;;;3.40;75.67;100088.45;1739917;81;21235;-38
2020/12/04 09:48:17;;;;;;;33.75;18.15;;;;;;;3.38;75.76;100087.97;1737382;82;21187;-38
2020/12/04 09:50:45;;;;;;;31.73;18.17;;;;;;;3.40;75.54;100086.58;1741576;81;21480;-38
2020/12/04 09:53:15;;;;;;;34.18;19.80;;;;;;;3.44;75.41;100093.48;1727344;81;21208;-38
2020/12/04 09:55:44;;;;;;;34.18;19.23;;;;;;;3.37;75.45;100091.19;1731647;80;21175;-38
2020/12/04 09:58:13;;;;;;;32.42;17.85;;;;;;;3.34;75.64;100095.02;1733462;82;21050;-37
2020/12/04 10:00:41;;;;;;;31.57;17.30;;;;;;;3.34;75.70;100097.69;1730337;81;21205;-38
2020/12/04 10:03:10;;;;;;;30.72;17.67;;;;;;;3.33;75.58;100101.45;1760336;80;21182;-38
2020/12/04 10:05:39;;;;;;;26.85;15.65;;;;;;;3.30;75.61;100102.02;1761541;80;21262;-37
2020/12/04 10:08:08;;;;;;;26.30;12.98;;;;;;;3.29;75.69;100097.77;1802160;79;21163;-38
2020/12/04 10:10:36;;;;;;;28.23;16.25;;;;;;;3.26;75.85;100102.36;1811066;77;21699;-38
2020/12/04 10:13:05;;;;;;;31.93;17.90;;;;;;;3.23;75.93;100098.40;1795876;79;21595;-38
2020/12/04 10:15:34;;;;;;;30.50;17.82;;;;;;;3.30;75.66;100099.34;1811806;77;21554;-38
2020/12/04 10:18:02;;;;;;;30.25;17.87;;;;;;;3.27;75.92;100101.28;1812865;78;21384;-38
2020/12/04 10:20:34;;;;;;;27.45;15.78;;;;;;;3.24;75.97;100097.31;1807185;78;21566;-38
2020/12/04 10:23:02;;;;;;;27.55;16.02;;;;;;;3.24;75.87;100098.66;1794940;79;21173;-38
2020/12/04 10:25:30;;;;;;;29.98;16.23;;;;;;;3.26;75.87;100101.82;1813596;77;21147;-38
2020/12/04 10:28:02;;;;;;;34.08;19.20;;;;;;;3.27;75.61;100094.58;1797123;78;21143;-38
2020/12/04 10:30:31;;;;;;;30.92;16.80;;;;;;;3.23;75.82;100095.72;1793845;79;23515;-38
2020/12/04 10:33:01;;;;;;;26.05;14.47;;;;;;;2.82;75.84;100035.28;1816099;79;21058;-38
2020/12/04 10:35:30;;;;;;;26.27;16.43;;;;;;;3.16;75.90;100089.13;1795699;78;21172;-38
2020/12/04 10:37:58;;;;;;;28.95;16.62;;;;;;;3.24;75.89;100095.17;1812087;78;21167;-38
2020/12/04 10:40:29;;;;;;;32.50;18.07;;;;;;;3.25;75.73;100099.42;1806611;77;21140;-38
2020/12/04 10:42:58;;;;;;;31.33;17.80;;;;;;;3.26;75.78;100098.34;1815773;79;21353;-38
2020/12/04 10:45:26;;;;;;;30.55;16.95;;;;;;;3.23;75.66;100086.34;1801548;79;21129;-38
2020/12/04 10:47:54;;;;;;;32.98;18.10;;;;;;;3.26;75.61;100096.45;1815521;79;21147;-38
2020/12/04 10:50:23;;;;;;;28.90;16.55;;;;;;;3.33;75.46;100093.41;1795393;79;21115;-38
2020/12/04 10:52:53;;;;;;;30.55;17.45;;;;;;;3.35;75.36;100092.56;1809263;79;22105;-38
2020/12/04 10:55:22;;;;;;;29.35;17.12;;;;;;;3.33;75.35;100087.52;1808793;78;21362;-38
2020/12/04 10:57:50;;;;;;;30.05;17.07;;;;;;;3.33;75.31;100096.09;1791015;79;21044;-38
2020/12/04 11:00:19;;;;;;;25.85;15.48;;;;;;;3.33;75.30;100094.75;1797586;77;21174;-38
2020/12/04 11:02:48;;;;;;;28.30;17.02;;;;;;;3.32;75.14;100099.86;1814115;79;21107;-38
2020/12/04 11:08:01;;;;;;;29.07;17.10;;;;;;;3.22;75.38;100097.34;1806016;78;22377;-38
2020/12/04 11:10:30;;;;;;;33.75;15.25;;;;;;;3.16;75.70;100095.28;1803834;79;21181;-38
2020/12/04 11:13:00;;;;;;;;;;;;;;;3.21;75.69;100090.38;1801700;79;21021;-38
2020/12/04 11:15:31;;;;;;;26.57;14.63;;;;;;;3.25;75.66;100084.69;1792117;79;20252;-38
2020/12/04 11:18:00;;;;;;;22.90;13.47;;;;;;;3.16;76.06;100091.80;1785603;79;21115;-38
2020/12/04 11:20:28;;;;;;;24.85;13.88;;;;;;;3.19;76.17;100091.23;1776413;79;21605;-38
2020/12/04 11:22:57;;;;;;;23.47;12.82;;;;;;;3.19;76.24;100088.02;1780150;79;21125;-38
2020/12/04 11:25:25;;;;;;;21.57;13.32;;;;;;;3.21;76.33;100081.00;1803881;79;21138;-38
2020/12/04 11:27:54;;;;;;;22.58;12.90;;;;;;;3.22;76.41;100080.72;1802842;79;21135;-38
2020/12/04 11:30:22;;;;;;;21.40;13.03;;;;;;;3.24;76.47;100081.23;1784591;79;21143;-38
2020/12/04 11:32:52;;;;;;;23.95;13.50;;;;;;;3.25;76.64;100082.00;1752689;81;21316;-38
2020/12/04 11:35:20;;;;;;;24.52;13.83;;;;;;;3.27;76.64;100083.86;1737843;82;21059;-38
2020/12/04 11:37:49;;;;;;;23.65;13.62;;;;;;;3.32;76.56;100077.08;1733173;82;21024;-38
2020/12/04 11:40:18;;;;;;;28.75;16.25;;;;;;;3.35;76.56;100073.26;1755839;81;22136;-38